sensor_id;sensor_type;location;lat;lon;timestamp;pressure;altitude;pressure_sealevel;temperature
67758;BMP180;54562;47.620;18.786;2022-12-05T00:01:25;98985.80;;;4.10
67758;BMP180;54562;47.620;18.786;2022-12-05T00:04:33;98970.20;;;4.10
67758;BMP180;54562;47.620;18.786;2022-12-05T00:07:41;98969.80;;;4.00
67758;BMP180;54562;47.620;18.786;2022-12-05T00:10:49;98964.60;;;4.00
67758;BMP180;54562;47.620;18.786;2022-12-05T00:13:59;98968.80;;;4.00
67758;BMP180;54562;47.620;18.786;2022-12-05T00:17:07;98965.80;;;3.96
67758;BMP180;54562;47.620;18.786;2022-12-05T00:20:15;98962.60;;;3.90
67758;BMP180;54562;47.620;18.786;2022-12-05T00:23:24;98959.60;;;3.90
67758;BMP180;54562;47.620;18.786;2022-12-05T00:26:33;98957.40;;;3.90
67758;BMP180;54562;47.620;18.786;2022-12-05T00:29:41;98952.20;;;3.90
67758;BMP180;54562;47.620;18.786;2022-12-05T00:32:50;98944.80;;;3.86
67758;BMP180;54562;47.620;18.786;2022-12-05T00:36:01;98952.40;;;3.80
67758;BMP180;54562;47.620;18.786;2022-12-05T00:39:12;98957.40;;;3.80
67758;BMP180;54562;47.620;18.786;2022-12-05T00:42:20;98961.40;;;3.80
67758;BMP180;54562;47.620;18.786;2022-12-05T00:45:29;98963.40;;;3.80
67758;BMP180;54562;47.620;18.786;2022-12-05T00:48:37;98964.40;;;3.80
67758;BMP180;54562;47.620;18.786;2022-12-05T00:51:46;98969.40;;;3.80
67758;BMP180;54562;47.620;18.786;2022-12-05T00:54:54;98966.20;;;3.80
67758;BMP180;54562;47.620;18.786;2022-12-05T00:58:03;98962.00;;;3.80
67758;BMP180;54562;47.620;18.786;2022-12-05T01:04:45;98962.00;;;3.80
67758;BMP180;54562;47.620;18.786;2022-12-05T01:07:54;98956.80;;;3.80
67758;BMP180;54562;47.620;18.786;2022-12-05T01:11:03;98959.80;;;3.80
67758;BMP180;54562;47.620;18.786;2022-12-05T01:14:13;98954.00;;;3.80
67758;BMP180;54562;47.620;18.786;2022-12-05T01:17:20;98947.00;;;3.80
67758;BMP180;54562;47.620;18.786;2022-12-05T01:20:28;98940.60;;;3.70
67758;BMP180;54562;47.620;18.786;2022-12-05T01:23:36;98943.20;;;3.70
67758;BMP180;54562;47.620;18.786;2022-12-05T01:26:45;98941.00;;;3.70
67758;BMP180;54562;47.620;18.786;2022-12-05T01:29:53;98939.00;;;3.62
67758;BMP180;54562;47.620;18.786;2022-12-05T01:33:02;98938.80;;;3.62
67758;BMP180;54562;47.620;18.786;2022-12-05T01:36:12;98938.00;;;3.60
67758;BMP180;54562;47.620;18.786;2022-12-05T01:39:20;98930.20;;;3.60
67758;BMP180;54562;47.620;18.786;2022-12-05T01:42:28;98929.80;;;3.60
67758;BMP180;54562;47.620;18.786;2022-12-05T01:45:40;98935.40;;;3.60
67758;BMP180;54562;47.620;18.786;2022-12-05T01:48:49;98935.00;;;3.58
67758;BMP180;54562;47.620;18.786;2022-12-05T01:52:03;98938.00;;;3.56
67758;BMP180;54562;47.620;18.786;2022-12-05T01:55:17;98938.60;;;3.50
67758;BMP180;54562;47.620;18.786;2022-12-05T01:58:30;98940.40;;;3.50
67758;BMP180;54562;47.620;18.786;2022-12-05T02:01:39;98948.00;;;3.50
67758;BMP180;54562;47.620;18.786;2022-12-05T02:04:57;98943.20;;;3.50
67758;BMP180;54562;47.620;18.786;2022-12-05T02:08:10;98937.80;;;3.50
67758;BMP180;54562;47.620;18.786;2022-12-05T02:11:19;98944.20;;;3.50
67758;BMP180;54562;47.620;18.786;2022-12-05T02:14:41;98946.60;;;3.52
67758;BMP180;54562;47.620;18.786;2022-12-05T02:18:02;98954.60;;;3.50
67758;BMP180;54562;47.620;18.786;2022-12-05T02:25:33;98949.00;;;3.52
67758;BMP180;54562;47.620;18.786;2022-12-05T02:32:12;98951.60;;;3.50
67758;BMP180;54562;47.620;18.786;2022-12-05T02:35:40;98955.00;;;3.50
67758;BMP180;54562;47.620;18.786;2022-12-05T02:38:58;98954.20;;;3.50
67758;BMP180;54562;47.620;18.786;2022-12-05T02:42:14;98950.60;;;3.50
67758;BMP180;54562;47.620;18.786;2022-12-05T02:45:30;98955.00;;;3.50
67758;BMP180;54562;47.620;18.786;2022-12-05T02:48:41;98958.00;;;3.50
67758;BMP180;54562;47.620;18.786;2022-12-05T02:51:56;98969.80;;;3.50
67758;BMP180;54562;47.620;18.786;2022-12-05T02:55:09;98963.60;;;3.50
67758;BMP180;54562;47.620;18.786;2022-12-05T02:58:22;98971.20;;;3.50
67758;BMP180;54562;47.620;18.786;2022-12-05T03:01:34;98973.60;;;3.50
67758;BMP180;54562;47.620;18.786;2022-12-05T03:04:42;98978.40;;;3.50
67758;BMP180;54562;47.620;18.786;2022-12-05T03:07:54;98976.80;;;3.50
67758;BMP180;54562;47.620;18.786;2022-12-05T03:11:05;98969.80;;;3.50
67758;BMP180;54562;47.620;18.786;2022-12-05T03:14:36;98970.80;;;3.50
67758;BMP180;54562;47.620;18.786;2022-12-05T03:17:50;98973.60;;;3.50
67758;BMP180;54562;47.620;18.786;2022-12-05T03:21:07;98973.60;;;3.50
67758;BMP180;54562;47.620;18.786;2022-12-05T03:24:28;98970.00;;;3.50
67758;BMP180;54562;47.620;18.786;2022-12-05T03:27:48;98972.60;;;3.48
67758;BMP180;54562;47.620;18.786;2022-12-05T03:31:10;98974.20;;;3.46
67758;BMP180;54562;47.620;18.786;2022-12-05T03:34:50;98960.80;;;3.40
67758;BMP180;54562;47.620;18.786;2022-12-05T03:38:12;98959.20;;;3.40
67758;BMP180;54562;47.620;18.786;2022-12-05T03:41:37;98952.20;;;3.40
67758;BMP180;54562;47.620;18.786;2022-12-05T03:44:56;98943.60;;;3.40
67758;BMP180;54562;47.620;18.786;2022-12-05T03:48:13;98945.60;;;3.40
67758;BMP180;54562;47.620;18.786;2022-12-05T03:51:29;98944.40;;;3.32
67758;BMP180;54562;47.620;18.786;2022-12-05T03:54:42;98943.60;;;3.30
67758;BMP180;54562;47.620;18.786;2022-12-05T03:57:57;98947.00;;;3.30
67758;BMP180;54562;47.620;18.786;2022-12-05T04:01:08;98952.60;;;3.30
67758;BMP180;54562;47.620;18.786;2022-12-05T04:04:23;98955.60;;;3.30
67758;BMP180;54562;47.620;18.786;2022-12-05T04:07:37;98963.00;;;3.30
67758;BMP180;54562;47.620;18.786;2022-12-05T04:10:50;98961.80;;;3.30
67758;BMP180;54562;47.620;18.786;2022-12-05T04:14:06;98970.80;;;3.30
67758;BMP180;54562;47.620;18.786;2022-12-05T04:17:23;98973.20;;;3.32
67758;BMP180;54562;47.620;18.786;2022-12-05T04:20:38;98967.40;;;3.38
67758;BMP180;54562;47.620;18.786;2022-12-05T04:24:11;98965.80;;;3.32
67758;BMP180;54562;47.620;18.786;2022-12-05T04:27:44;98965.80;;;3.32
67758;BMP180;54562;47.620;18.786;2022-12-05T04:31:04;98953.40;;;3.30
67758;BMP180;54562;47.620;18.786;2022-12-05T04:34:15;98953.20;;;3.30
67758;BMP180;54562;47.620;18.786;2022-12-05T04:37:32;98944.40;;;3.30
67758;BMP180;54562;47.620;18.786;2022-12-05T04:40:47;98942.60;;;3.30
67758;BMP180;54562;47.620;18.786;2022-12-05T04:44:00;98943.20;;;3.30
67758;BMP180;54562;47.620;18.786;2022-12-05T04:47:12;98934.40;;;3.30
67758;BMP180;54562;47.620;18.786;2022-12-05T04:53:34;98938.20;;;3.28
67758;BMP180;54562;47.620;18.786;2022-12-05T04:56:44;98935.00;;;3.20
67758;BMP180;54562;47.620;18.786;2022-12-05T04:59:53;98927.00;;;3.20
67758;BMP180;54562;47.620;18.786;2022-12-05T05:03:09;98921.40;;;3.22
67758;BMP180;54562;47.620;18.786;2022-12-05T05:06:19;98939.00;;;3.28
67758;BMP180;54562;47.620;18.786;2022-12-05T05:09:27;98934.60;;;3.30
67758;BMP180;54562;47.620;18.786;2022-12-05T05:12:36;98944.20;;;3.30
67758;BMP180;54562;47.620;18.786;2022-12-05T05:15:44;98957.80;;;3.30
67758;BMP180;54562;47.620;18.786;2022-12-05T05:18:53;98959.40;;;3.30
67758;BMP180;54562;47.620;18.786;2022-12-05T05:22:04;98959.00;;;3.30
67758;BMP180;54562;47.620;18.786;2022-12-05T05:25:12;98959.60;;;3.30
67758;BMP180;54562;47.620;18.786;2022-12-05T05:28:20;98956.60;;;3.30
67758;BMP180;54562;47.620;18.786;2022-12-05T05:31:29;98964.00;;;3.30
67758;BMP180;54562;47.620;18.786;2022-12-05T05:34:38;98969.80;;;3.30
67758;BMP180;54562;47.620;18.786;2022-12-05T05:37:46;98965.20;;;3.30
67758;BMP180;54562;47.620;18.786;2022-12-05T05:40:54;98965.40;;;3.30
67758;BMP180;54562;47.620;18.786;2022-12-05T05:44:03;98969.80;;;3.30
67758;BMP180;54562;47.620;18.786;2022-12-05T05:47:11;98977.60;;;3.30
67758;BMP180;54562;47.620;18.786;2022-12-05T05:50:19;98985.20;;;3.30
67758;BMP180;54562;47.620;18.786;2022-12-05T05:53:28;98978.00;;;3.30
67758;BMP180;54562;47.620;18.786;2022-12-05T05:56:36;98978.60;;;3.30
67758;BMP180;54562;47.620;18.786;2022-12-05T05:59:46;98977.80;;;3.30
67758;BMP180;54562;47.620;18.786;2022-12-05T06:02:57;98974.40;;;3.30
67758;BMP180;54562;47.620;18.786;2022-12-05T06:06:09;98978.00;;;3.30
67758;BMP180;54562;47.620;18.786;2022-12-05T06:09:18;98981.20;;;3.30
67758;BMP180;54562;47.620;18.786;2022-12-05T06:15:39;98974.40;;;3.30
67758;BMP180;54562;47.620;18.786;2022-12-05T06:18:45;98978.20;;;3.30
67758;BMP180;54562;47.620;18.786;2022-12-05T06:21:54;98995.20;;;3.30
67758;BMP180;54562;47.620;18.786;2022-12-05T06:25:03;99005.00;;;3.30
67758;BMP180;54562;47.620;18.786;2022-12-05T06:28:11;99002.20;;;3.32
67758;BMP180;54562;47.620;18.786;2022-12-05T06:31:22;99010.00;;;3.40
67758;BMP180;54562;47.620;18.786;2022-12-05T06:34:35;99011.00;;;3.40
67758;BMP180;54562;47.620;18.786;2022-12-05T06:37:43;99007.40;;;3.40
67758;BMP180;54562;47.620;18.786;2022-12-05T06:40:52;99011.60;;;3.40
67758;BMP180;54562;47.620;18.786;2022-12-05T06:44:00;99019.00;;;3.48
67758;BMP180;54562;47.620;18.786;2022-12-05T06:47:08;99011.00;;;3.50
67758;BMP180;54562;47.620;18.786;2022-12-05T06:50:17;99012.00;;;3.50
67758;BMP180;54562;47.620;18.786;2022-12-05T06:53:25;99007.60;;;3.50
67758;BMP180;54562;47.620;18.786;2022-12-05T06:56:33;99004.00;;;3.50
67758;BMP180;54562;47.620;18.786;2022-12-05T06:59:41;99003.40;;;3.50
67758;BMP180;54562;47.620;18.786;2022-12-05T07:02:52;99006.40;;;3.50
67758;BMP180;54562;47.620;18.786;2022-12-05T07:06:02;99010.40;;;3.50
67758;BMP180;54562;47.620;18.786;2022-12-05T07:09:11;99013.20;;;3.50
67758;BMP180;54562;47.620;18.786;2022-12-05T07:12:20;99017.80;;;3.50
67758;BMP180;54562;47.620;18.786;2022-12-05T07:15:27;99023.80;;;3.50
67758;BMP180;54562;47.620;18.786;2022-12-05T07:18:35;99022.40;;;3.50
67758;BMP180;54562;47.620;18.786;2022-12-05T07:21:43;99026.00;;;3.50
67758;BMP180;54562;47.620;18.786;2022-12-05T07:24:53;99027.20;;;3.50
67758;BMP180;54562;47.620;18.786;2022-12-05T07:28:01;99030.20;;;3.50
67758;BMP180;54562;47.620;18.786;2022-12-05T07:31:12;99030.20;;;3.56
67758;BMP180;54562;47.620;18.786;2022-12-05T07:34:20;99028.60;;;3.58
67758;BMP180;54562;47.620;18.786;2022-12-05T07:37:28;99037.20;;;3.60
67758;BMP180;54562;47.620;18.786;2022-12-05T07:40:37;99044.80;;;3.60
67758;BMP180;54562;47.620;18.786;2022-12-05T07:43:46;99049.60;;;3.60
67758;BMP180;54562;47.620;18.786;2022-12-05T07:46:54;99056.20;;;3.62
67758;BMP180;54562;47.620;18.786;2022-12-05T07:50:02;99058.20;;;3.68
67758;BMP180;54562;47.620;18.786;2022-12-05T07:53:11;99055.80;;;3.70
67758;BMP180;54562;47.620;18.786;2022-12-05T07:56:20;99051.20;;;3.70
67758;BMP180;54562;47.620;18.786;2022-12-05T07:59:28;99053.20;;;3.70
67758;BMP180;54562;47.620;18.786;2022-12-05T08:02:36;99057.60;;;3.70
67758;BMP180;54562;47.620;18.786;2022-12-05T08:05:46;99062.20;;;3.70
67758;BMP180;54562;47.620;18.786;2022-12-05T08:08:55;99062.80;;;3.72
67758;BMP180;54562;47.620;18.786;2022-12-05T08:12:05;99065.80;;;3.80
67758;BMP180;54562;47.620;18.786;2022-12-05T08:15:13;99070.60;;;3.80
67758;BMP180;54562;47.620;18.786;2022-12-05T08:18:21;99074.00;;;3.80
67758;BMP180;54562;47.620;18.786;2022-12-05T08:21:33;99069.40;;;3.80
67758;BMP180;54562;47.620;18.786;2022-12-05T08:24:43;99067.60;;;3.84
67758;BMP180;54562;47.620;18.786;2022-12-05T08:27:51;99065.00;;;3.90
67758;BMP180;54562;47.620;18.786;2022-12-05T08:31:06;99063.40;;;3.90
67758;BMP180;54562;47.620;18.786;2022-12-05T08:34:16;99062.40;;;3.92
67758;BMP180;54562;47.620;18.786;2022-12-05T08:37:24;99067.80;;;4.00
67758;BMP180;54562;47.620;18.786;2022-12-05T08:40:33;99069.40;;;4.00
67758;BMP180;54562;47.620;18.786;2022-12-05T08:43:41;99069.60;;;4.00
67758;BMP180;54562;47.620;18.786;2022-12-05T08:46:52;99068.20;;;4.00
67758;BMP180;54562;47.620;18.786;2022-12-05T08:50:00;99064.20;;;4.10
67758;BMP180;54562;47.620;18.786;2022-12-05T08:53:08;99068.00;;;4.10
67758;BMP180;54562;47.620;18.786;2022-12-05T08:56:18;99071.20;;;4.10
67758;BMP180;54562;47.620;18.786;2022-12-05T08:59:33;99070.60;;;4.20
67758;BMP180;54562;47.620;18.786;2022-12-05T09:02:41;99066.40;;;4.20
67758;BMP180;54562;47.620;18.786;2022-12-05T09:05:49;99060.00;;;4.20
67758;BMP180;54562;47.620;18.786;2022-12-05T09:09:02;99064.40;;;4.30
67758;BMP180;54562;47.620;18.786;2022-12-05T09:12:11;99070.20;;;4.30
67758;BMP180;54562;47.620;18.786;2022-12-05T09:15:24;99064.40;;;4.30
67758;BMP180;54562;47.620;18.786;2022-12-05T09:18:32;99064.60;;;4.30
67758;BMP180;54562;47.620;18.786;2022-12-05T09:21:41;99062.60;;;4.30
67758;BMP180;54562;47.620;18.786;2022-12-05T09:24:50;99059.20;;;4.30
67758;BMP180;54562;47.620;18.786;2022-12-05T09:28:01;99061.40;;;4.30
67758;BMP180;54562;47.620;18.786;2022-12-05T09:31:12;99057.80;;;4.30
67758;BMP180;54562;47.620;18.786;2022-12-05T09:34:20;99058.20;;;4.30
67758;BMP180;54562;47.620;18.786;2022-12-05T09:37:31;99052.20;;;4.30
67758;BMP180;54562;47.620;18.786;2022-12-05T09:40:47;99053.00;;;4.30
67758;BMP180;54562;47.620;18.786;2022-12-05T09:44:11;99055.00;;;4.40
67758;BMP180;54562;47.620;18.786;2022-12-05T09:47:37;99052.60;;;4.40
67758;BMP180;54562;47.620;18.786;2022-12-05T09:50:52;99055.60;;;4.40
67758;BMP180;54562;47.620;18.786;2022-12-05T09:54:03;99054.00;;;4.40
67758;BMP180;54562;47.620;18.786;2022-12-05T09:57:12;99054.00;;;4.48
67758;BMP180;54562;47.620;18.786;2022-12-05T10:03:40;99046.00;;;4.50
67758;BMP180;54562;47.620;18.786;2022-12-05T10:06:57;99041.40;;;4.50
67758;BMP180;54562;47.620;18.786;2022-12-05T10:10:27;99034.00;;;4.58
67758;BMP180;54562;47.620;18.786;2022-12-05T10:13:51;99018.60;;;4.60
67758;BMP180;54562;47.620;18.786;2022-12-05T10:17:14;99013.40;;;4.70
67758;BMP180;54562;47.620;18.786;2022-12-05T10:20:29;99014.80;;;4.78
67758;BMP180;54562;47.620;18.786;2022-12-05T10:23:50;99013.60;;;4.80
67758;BMP180;54562;47.620;18.786;2022-12-05T10:27:10;99013.20;;;4.90
67758;BMP180;54562;47.620;18.786;2022-12-05T10:30:24;99009.60;;;4.90
67758;BMP180;54562;47.620;18.786;2022-12-05T10:33:39;99011.20;;;4.90
67758;BMP180;54562;47.620;18.786;2022-12-05T10:36:59;99008.80;;;4.92
67758;BMP180;54562;47.620;18.786;2022-12-05T10:40:14;99010.40;;;5.00
67758;BMP180;54562;47.620;18.786;2022-12-05T10:43:29;99015.80;;;4.90
67758;BMP180;54562;47.620;18.786;2022-12-05T10:46:38;99004.40;;;4.90
67758;BMP180;54562;47.620;18.786;2022-12-05T10:49:46;98996.40;;;4.90
67758;BMP180;54562;47.620;18.786;2022-12-05T10:52:57;98992.20;;;4.88
67758;BMP180;54562;47.620;18.786;2022-12-05T10:56:42;98987.40;;;4.84
67758;BMP180;54562;47.620;18.786;2022-12-05T10:59:51;98989.20;;;4.90
67758;BMP180;54562;47.620;18.786;2022-12-05T11:03:03;98985.20;;;4.84
67758;BMP180;54562;47.620;18.786;2022-12-05T11:06:22;98981.60;;;4.90
67758;BMP180;54562;47.620;18.786;2022-12-05T11:09:34;98976.00;;;4.90
67758;BMP180;54562;47.620;18.786;2022-12-05T11:12:42;98975.40;;;4.82
67758;BMP180;54562;47.620;18.786;2022-12-05T11:15:51;98977.00;;;4.84
67758;BMP180;54562;47.620;18.786;2022-12-05T11:19:26;98986.40;;;4.84
67758;BMP180;54562;47.620;18.786;2022-12-05T11:22:36;98965.60;;;4.90
67758;BMP180;54562;47.620;18.786;2022-12-05T11:25:50;98964.80;;;4.90
67758;BMP180;54562;47.620;18.786;2022-12-05T11:28:59;98961.20;;;4.98
67758;BMP180;54562;47.620;18.786;2022-12-05T11:32:19;98962.20;;;5.00
67758;BMP180;54562;47.620;18.786;2022-12-05T11:35:29;98948.60;;;5.00
67758;BMP180;54562;47.620;18.786;2022-12-05T11:38:39;98952.80;;;5.00
67758;BMP180;54562;47.620;18.786;2022-12-05T11:42:02;98951.00;;;5.00
67758;BMP180;54562;47.620;18.786;2022-12-05T11:45:33;98946.60;;;5.00
67758;BMP180;54562;47.620;18.786;2022-12-05T11:49:02;98949.60;;;5.06
67758;BMP180;54562;47.620;18.786;2022-12-05T11:52:33;98956.40;;;5.10
67758;BMP180;54562;47.620;18.786;2022-12-05T11:55:58;98960.40;;;5.10
67758;BMP180;54562;47.620;18.786;2022-12-05T11:59:56;98958.40;;;5.10
67758;BMP180;54562;47.620;18.786;2022-12-05T12:03:29;98951.80;;;5.10
67758;BMP180;54562;47.620;18.786;2022-12-05T12:07:01;98947.60;;;5.10
67758;BMP180;54562;47.620;18.786;2022-12-05T12:10:25;98945.60;;;5.12
67758;BMP180;54562;47.620;18.786;2022-12-05T12:13:56;98945.00;;;5.16
67758;BMP180;54562;47.620;18.786;2022-12-05T12:17:19;98951.00;;;5.10
67758;BMP180;54562;47.620;18.786;2022-12-05T12:20:46;98944.00;;;5.12
67758;BMP180;54562;47.620;18.786;2022-12-05T12:24:14;98933.60;;;5.10
67758;BMP180;54562;47.620;18.786;2022-12-05T12:27:43;98924.60;;;5.12
67758;BMP180;54562;47.620;18.786;2022-12-05T12:31:12;98924.20;;;5.20
67758;BMP180;54562;47.620;18.786;2022-12-05T12:35:00;98926.60;;;5.20
67758;BMP180;54562;47.620;18.786;2022-12-05T12:38:42;98930.00;;;5.20
67758;BMP180;54562;47.620;18.786;2022-12-05T12:42:12;98918.40;;;5.20
67758;BMP180;54562;47.620;18.786;2022-12-05T12:45:37;98908.00;;;5.20
67758;BMP180;54562;47.620;18.786;2022-12-05T12:49:08;98896.00;;;5.20
67758;BMP180;54562;47.620;18.786;2022-12-05T12:52:24;98892.00;;;5.20
67758;BMP180;54562;47.620;18.786;2022-12-05T12:55:43;98887.60;;;5.20
67758;BMP180;54562;47.620;18.786;2022-12-05T13:10:57;98878.80;;;5.50
67758;BMP180;54562;47.620;18.786;2022-12-05T13:14:13;98878.20;;;5.50
67758;BMP180;54562;47.620;18.786;2022-12-05T13:17:25;98876.00;;;5.42
67758;BMP180;54562;47.620;18.786;2022-12-05T13:20:37;98877.20;;;5.40
67758;BMP180;54562;47.620;18.786;2022-12-05T13:24:01;98882.20;;;5.30
67758;BMP180;54562;47.620;18.786;2022-12-05T13:27:16;98890.40;;;5.30
67758;BMP180;54562;47.620;18.786;2022-12-05T13:30:26;98894.20;;;5.20
67758;BMP180;54562;47.620;18.786;2022-12-05T13:33:45;98898.00;;;5.20
67758;BMP180;54562;47.620;18.786;2022-12-05T13:36:54;98902.40;;;5.10
67758;BMP180;54562;47.620;18.786;2022-12-05T13:40:31;98905.20;;;5.10
67758;BMP180;54562;47.620;18.786;2022-12-05T13:43:57;98906.00;;;5.10
67758;BMP180;54562;47.620;18.786;2022-12-05T13:47:27;98902.40;;;5.10
67758;BMP180;54562;47.620;18.786;2022-12-05T13:50:48;98904.60;;;5.10
67758;BMP180;54562;47.620;18.786;2022-12-05T13:54:05;98905.00;;;5.00
67758;BMP180;54562;47.620;18.786;2022-12-05T13:57:52;98896.20;;;5.00
67758;BMP180;54562;47.620;18.786;2022-12-05T14:01:48;98895.40;;;5.00
67758;BMP180;54562;47.620;18.786;2022-12-05T14:05:01;98903.20;;;4.90
67758;BMP180;54562;47.620;18.786;2022-12-05T14:09:10;98897.20;;;4.90
67758;BMP180;54562;47.620;18.786;2022-12-05T14:12:50;98901.20;;;4.90
67758;BMP180;54562;47.620;18.786;2022-12-05T14:16:39;98900.20;;;4.90
67758;BMP180;54562;47.620;18.786;2022-12-05T14:20:19;98898.40;;;4.80
67758;BMP180;54562;47.620;18.786;2022-12-05T14:23:59;98899.20;;;4.80
67758;BMP180;54562;47.620;18.786;2022-12-05T14:27:19;98897.80;;;4.80
67758;BMP180;54562;47.620;18.786;2022-12-05T14:30:47;98897.80;;;4.80
67758;BMP180;54562;47.620;18.786;2022-12-05T14:34:17;98903.00;;;4.80
67758;BMP180;54562;47.620;18.786;2022-12-05T14:37:29;98898.00;;;4.80
67758;BMP180;54562;47.620;18.786;2022-12-05T14:40:41;98895.60;;;4.76
67758;BMP180;54562;47.620;18.786;2022-12-05T14:43:55;98883.40;;;4.70
67758;BMP180;54562;47.620;18.786;2022-12-05T14:47:05;98886.00;;;4.70
67758;BMP180;54562;47.620;18.786;2022-12-05T14:50:40;98879.00;;;4.70
67758;BMP180;54562;47.620;18.786;2022-12-05T14:53:50;98878.60;;;4.70
67758;BMP180;54562;47.620;18.786;2022-12-05T14:57:13;98880.00;;;4.70
67758;BMP180;54562;47.620;18.786;2022-12-05T15:00:24;98878.40;;;4.70
67758;BMP180;54562;47.620;18.786;2022-12-05T15:03:36;98872.80;;;4.70
67758;BMP180;54562;47.620;18.786;2022-12-05T15:06:51;98862.20;;;4.70
67758;BMP180;54562;47.620;18.786;2022-12-05T15:10:04;98852.20;;;4.70
67758;BMP180;54562;47.620;18.786;2022-12-05T15:13:17;98839.20;;;4.70
67758;BMP180;54562;47.620;18.786;2022-12-05T15:16:28;98840.60;;;4.70
67758;BMP180;54562;47.620;18.786;2022-12-05T15:19:46;98835.80;;;4.70
67758;BMP180;54562;47.620;18.786;2022-12-05T15:22:58;98849.60;;;4.70
67758;BMP180;54562;47.620;18.786;2022-12-05T15:26:16;98853.40;;;4.70
67758;BMP180;54562;47.620;18.786;2022-12-05T15:29:46;98861.00;;;4.70
67758;BMP180;54562;47.620;18.786;2022-12-05T15:32:55;98843.40;;;4.70
67758;BMP180;54562;47.620;18.786;2022-12-05T15:36:06;98841.20;;;4.70
67758;BMP180;54562;47.620;18.786;2022-12-05T15:39:21;98845.40;;;4.70
67758;BMP180;54562;47.620;18.786;2022-12-05T15:42:36;98863.20;;;4.70
67758;BMP180;54562;47.620;18.786;2022-12-05T15:45:45;98864.00;;;4.70
67758;BMP180;54562;47.620;18.786;2022-12-05T15:48:54;98864.00;;;4.70
67758;BMP180;54562;47.620;18.786;2022-12-05T15:52:17;98862.00;;;4.70
67758;BMP180;54562;47.620;18.786;2022-12-05T15:55:34;98857.60;;;4.70
67758;BMP180;54562;47.620;18.786;2022-12-05T15:58:48;98857.20;;;4.76
67758;BMP180;54562;47.620;18.786;2022-12-05T16:02:06;98849.80;;;4.76
67758;BMP180;54562;47.620;18.786;2022-12-05T16:05:27;98848.60;;;4.78
67758;BMP180;54562;47.620;18.786;2022-12-05T16:08:44;98842.00;;;4.72
67758;BMP180;54562;47.620;18.786;2022-12-05T16:11:58;98843.60;;;4.70
67758;BMP180;54562;47.620;18.786;2022-12-05T16:15:12;98843.60;;;4.70
67758;BMP180;54562;47.620;18.786;2022-12-05T16:18:30;98844.60;;;4.70
67758;BMP180;54562;47.620;18.786;2022-12-05T16:21:46;98842.80;;;4.70
67758;BMP180;54562;47.620;18.786;2022-12-05T16:25:17;98850.20;;;4.72
67758;BMP180;54562;47.620;18.786;2022-12-05T16:28:31;98855.80;;;4.76
67758;BMP180;54562;47.620;18.786;2022-12-05T16:31:41;98860.80;;;4.80
67758;BMP180;54562;47.620;18.786;2022-12-05T16:34:50;98856.60;;;4.80
67758;BMP180;54562;47.620;18.786;2022-12-05T16:38:19;98851.20;;;4.80
67758;BMP180;54562;47.620;18.786;2022-12-05T16:41:35;98850.20;;;4.80
67758;BMP180;54562;47.620;18.786;2022-12-05T16:44:59;98852.20;;;4.80
67758;BMP180;54562;47.620;18.786;2022-12-05T16:48:19;98846.00;;;4.80
67758;BMP180;54562;47.620;18.786;2022-12-05T16:51:40;98841.20;;;4.84
67758;BMP180;54562;47.620;18.786;2022-12-05T16:54:49;98846.40;;;4.80
67758;BMP180;54562;47.620;18.786;2022-12-05T16:57:57;98832.20;;;4.82
67758;BMP180;54562;47.620;18.786;2022-12-05T17:01:15;98840.60;;;4.80
67758;BMP180;54562;47.620;18.786;2022-12-05T17:04:24;98845.60;;;4.84
67758;BMP180;54562;47.620;18.786;2022-12-05T17:07:33;98833.40;;;4.88
67758;BMP180;54562;47.620;18.786;2022-12-05T17:10:42;98827.60;;;4.88
67758;BMP180;54562;47.620;18.786;2022-12-05T17:13:51;98830.00;;;4.90
67758;BMP180;54562;47.620;18.786;2022-12-05T17:16:59;98833.20;;;4.90
67758;BMP180;54562;47.620;18.786;2022-12-05T17:20:11;98838.00;;;4.90
67758;BMP180;54562;47.620;18.786;2022-12-05T17:23:21;98834.80;;;4.90
67758;BMP180;54562;47.620;18.786;2022-12-05T17:26:29;98823.80;;;4.90
67758;BMP180;54562;47.620;18.786;2022-12-05T17:29:36;98813.60;;;4.90
67758;BMP180;54562;47.620;18.786;2022-12-05T17:32:45;98811.80;;;4.90
67758;BMP180;54562;47.620;18.786;2022-12-05T17:35:53;98815.20;;;4.90
67758;BMP180;54562;47.620;18.786;2022-12-05T17:39:01;98824.40;;;4.90
67758;BMP180;54562;47.620;18.786;2022-12-05T17:42:10;98827.40;;;4.90
67758;BMP180;54562;47.620;18.786;2022-12-05T17:45:18;98828.40;;;4.90
67758;BMP180;54562;47.620;18.786;2022-12-05T17:48:26;98828.20;;;4.90
67758;BMP180;54562;47.620;18.786;2022-12-05T17:51:34;98827.20;;;4.90
67758;BMP180;54562;47.620;18.786;2022-12-05T17:55:02;98831.20;;;4.90
67758;BMP180;54562;47.620;18.786;2022-12-05T17:58:10;98827.00;;;4.90
67758;BMP180;54562;47.620;18.786;2022-12-05T18:01:22;98828.40;;;5.00
67758;BMP180;54562;47.620;18.786;2022-12-05T18:04:31;98836.00;;;5.00
67758;BMP180;54562;47.620;18.786;2022-12-05T18:07:41;98846.40;;;5.00
67758;BMP180;54562;47.620;18.786;2022-12-05T18:10:51;98848.80;;;5.00
67758;BMP180;54562;47.620;18.786;2022-12-05T18:13:59;98852.60;;;5.00
67758;BMP180;54562;47.620;18.786;2022-12-05T18:17:07;98849.80;;;5.02
67758;BMP180;54562;47.620;18.786;2022-12-05T18:20:17;98851.60;;;5.06
67758;BMP180;54562;47.620;18.786;2022-12-05T18:23:24;98847.80;;;5.08
67758;BMP180;54562;47.620;18.786;2022-12-05T18:26:32;98825.80;;;5.10
67758;BMP180;54562;47.620;18.786;2022-12-05T18:29:40;98833.80;;;5.08
67758;BMP180;54562;47.620;18.786;2022-12-05T18:32:50;98834.60;;;5.10
67758;BMP180;54562;47.620;18.786;2022-12-05T18:36:04;98835.00;;;5.10
67758;BMP180;54562;47.620;18.786;2022-12-05T18:39:14;98828.80;;;5.10
67758;BMP180;54562;47.620;18.786;2022-12-05T18:42:23;98828.00;;;5.10
67758;BMP180;54562;47.620;18.786;2022-12-05T18:45:31;98825.00;;;5.10
67758;BMP180;54562;47.620;18.786;2022-12-05T18:48:39;98827.80;;;5.10
67758;BMP180;54562;47.620;18.786;2022-12-05T18:51:53;98819.60;;;5.10
67758;BMP180;54562;47.620;18.786;2022-12-05T18:55:02;98816.20;;;5.10
67758;BMP180;54562;47.620;18.786;2022-12-05T18:58:26;98819.80;;;5.10
67758;BMP180;54562;47.620;18.786;2022-12-05T19:01:37;98820.60;;;5.10
67758;BMP180;54562;47.620;18.786;2022-12-05T19:04:46;98820.40;;;5.10
67758;BMP180;54562;47.620;18.786;2022-12-05T19:07:56;98813.20;;;5.10
67758;BMP180;54562;47.620;18.786;2022-12-05T19:11:07;98814.80;;;5.10
67758;BMP180;54562;47.620;18.786;2022-12-05T19:14:17;98810.00;;;5.10